sensor_id;sensor_type;location;lat;lon;timestamp;pressure;altitude;pressure_sealevel;temperature;humidity
73974;BME280;62336;-26.094;27.994;2023-07-13T00:00:27;85881.16;;;16.86;22.49
73974;BME280;62336;-26.094;27.994;2023-07-13T00:02:53;85882.37;;;16.99;22.18
73974;BME280;62336;-26.094;27.994;2023-07-13T00:05:18;85880.24;;;17.16;21.66
73974;BME280;62336;-26.094;27.994;2023-07-13T00:07:43;85876.51;;;16.77;21.76
73974;BME280;62336;-26.094;27.994;2023-07-13T00:10:10;85874.92;;;17.03;22.15
73974;BME280;62336;-26.094;27.994;2023-07-13T00:12:37;85873.43;;;17.05;22.53
73974;BME280;62336;-26.094;27.994;2023-07-13T00:15:03;85871.05;;;16.81;22.41
73974;BME280;62336;-26.094;27.994;2023-07-13T00:17:26;85871.55;;;16.71;22.51
73974;BME280;62336;-26.094;27.994;2023-07-13T00:19:51;85871.32;;;16.67;21.85
73974;BME280;62336;-26.094;27.994;2023-07-13T00:22:16;85868.36;;;17.19;21.77
73974;BME280;62336;-26.094;27.994;2023-07-13T00:24:41;85867.80;;;17.13;22.13
73974;BME280;62336;-26.094;27.994;2023-07-13T00:27:08;85865.22;;;16.85;22.43
73974;BME280;62336;-26.094;27.994;2023-07-13T00:29:33;85866.46;;;16.72;22.83
73974;BME280;62336;-26.094;27.994;2023-07-13T00:31:58;85867.69;;;16.29;22.94
73974;BME280;62336;-26.094;27.994;2023-07-13T00:34:24;85864.31;;;16.47;22.94
73974;BME280;62336;-26.094;27.994;2023-07-13T00:36:48;85861.93;;;16.19;22.86
73974;BME280;62336;-26.094;27.994;2023-07-13T00:39:14;85862.08;;;16.27;23.13
73974;BME280;62336;-26.094;27.994;2023-07-13T00:41:39;85862.51;;;16.35;23.40
73974;BME280;62336;-26.094;27.994;2023-07-13T00:44:08;85858.73;;;16.33;23.00
73974;BME280;62336;-26.094;27.994;2023-07-13T00:46:32;85856.41;;;16.25;22.92
73974;BME280;62336;-26.094;27.994;2023-07-13T00:48:59;85852.78;;;16.35;23.19
73974;BME280;62336;-26.094;27.994;2023-07-13T00:51:28;85849.34;;;16.28;23.12
73974;BME280;62336;-26.094;27.994;2023-07-13T00:53:47;85842.66;;;16.21;22.79
73974;BME280;62336;-26.094;27.994;2023-07-13T00:56:13;85840.95;;;16.27;23.00
73974;BME280;62336;-26.094;27.994;2023-07-13T00:58:39;85836.69;;;16.34;22.77
73974;BME280;62336;-26.094;27.994;2023-07-13T01:01:03;85834.49;;;16.33;23.01
73974;BME280;62336;-26.094;27.994;2023-07-13T01:03:28;85833.60;;;16.39;22.82
73974;BME280;62336;-26.094;27.994;2023-07-13T01:05:54;85834.02;;;16.23;22.18
73974;BME280;62336;-26.094;27.994;2023-07-13T01:08:20;85836.03;;;17.11;22.32
73974;BME280;62336;-26.094;27.994;2023-07-13T01:10:52;85830.17;;;16.60;22.51
73974;BME280;62336;-26.094;27.994;2023-07-13T01:13:11;85829.26;;;16.86;22.18
73974;BME280;62336;-26.094;27.994;2023-07-13T01:15:38;85830.37;;;16.36;22.59
73974;BME280;62336;-26.094;27.994;2023-07-13T01:18:03;85829.04;;;17.31;21.71
73974;BME280;62336;-26.094;27.994;2023-07-13T01:20:27;85829.24;;;16.58;22.39
73974;BME280;62336;-26.094;27.994;2023-07-13T01:22:53;85829.28;;;16.59;22.66
73974;BME280;62336;-26.094;27.994;2023-07-13T01:25:18;85831.90;;;16.41;22.82
73974;BME280;62336;-26.094;27.994;2023-07-13T01:27:44;85833.64;;;16.62;22.59
73974;BME280;62336;-26.094;27.994;2023-07-13T01:30:10;85832.60;;;16.16;22.75
73974;BME280;62336;-26.094;27.994;2023-07-13T01:32:35;85831.38;;;16.32;22.88
73974;BME280;62336;-26.094;27.994;2023-07-13T01:35:02;85832.91;;;16.37;22.87
73974;BME280;62336;-26.094;27.994;2023-07-13T01:37:27;85833.79;;;16.41;22.75
73974;BME280;62336;-26.094;27.994;2023-07-13T01:39:52;85834.62;;;16.29;22.86
73974;BME280;62336;-26.094;27.994;2023-07-13T01:42:18;85837.12;;;15.94;23.14
73974;BME280;62336;-26.094;27.994;2023-07-13T01:44:43;85838.74;;;16.14;23.05
73974;BME280;62336;-26.094;27.994;2023-07-13T01:47:10;85840.44;;;15.99;22.84
73974;BME280;62336;-26.094;27.994;2023-07-13T01:49:34;85837.43;;;16.51;22.31
73974;BME280;62336;-26.094;27.994;2023-07-13T01:51:59;85836.66;;;16.51;22.13
73974;BME280;62336;-26.094;27.994;2023-07-13T01:54:25;85836.04;;;16.31;22.91
73974;BME280;62336;-26.094;27.994;2023-07-13T01:56:50;85835.47;;;16.34;22.73
73974;BME280;62336;-26.094;27.994;2023-07-13T01:59:16;85836.18;;;16.28;22.10
73974;BME280;62336;-26.094;27.994;2023-07-13T02:01:42;85838.26;;;15.95;22.54
73974;BME280;62336;-26.094;27.994;2023-07-13T02:04:07;85833.22;;;16.53;22.66
73974;BME280;62336;-26.094;27.994;2023-07-13T02:06:32;85834.44;;;16.09;22.97
73974;BME280;62336;-26.094;27.994;2023-07-13T02:08:58;85832.74;;;16.03;23.01
73974;BME280;62336;-26.094;27.994;2023-07-13T02:11:24;85831.91;;;15.89;23.46
73974;BME280;62336;-26.094;27.994;2023-07-13T02:13:49;85828.93;;;15.79;23.41
73974;BME280;62336;-26.094;27.994;2023-07-13T02:16:15;85825.51;;;16.14;23.13
73974;BME280;62336;-26.094;27.994;2023-07-13T02:18:40;85824.84;;;16.05;23.07
73974;BME280;62336;-26.094;27.994;2023-07-13T02:21:06;85825.28;;;16.20;22.95
73974;BME280;62336;-26.094;27.994;2023-07-13T02:23:31;85826.92;;;16.32;22.86
73974;BME280;62336;-26.094;27.994;2023-07-13T02:25:56;85824.56;;;16.47;22.06
73974;BME280;62336;-26.094;27.994;2023-07-13T02:28:22;85823.00;;;16.58;22.43
73974;BME280;62336;-26.094;27.994;2023-07-13T02:30:47;85823.41;;;16.67;22.36
73974;BME280;62336;-26.094;27.994;2023-07-13T02:33:12;85824.48;;;16.47;22.62
73974;BME280;62336;-26.094;27.994;2023-07-13T02:35:39;85827.00;;;15.95;23.31
73974;BME280;62336;-26.094;27.994;2023-07-13T02:38:03;85824.30;;;15.97;23.05
73974;BME280;62336;-26.094;27.994;2023-07-13T02:40:29;85823.03;;;16.02;23.13
73974;BME280;62336;-26.094;27.994;2023-07-13T02:42:55;85823.03;;;16.08;23.32
73974;BME280;62336;-26.094;27.994;2023-07-13T02:45:20;85824.28;;;15.88;23.37
73974;BME280;62336;-26.094;27.994;2023-07-13T02:47:46;85827.02;;;15.82;23.27
73974;BME280;62336;-26.094;27.994;2023-07-13T02:50:11;85826.91;;;15.75;23.33
73974;BME280;62336;-26.094;27.994;2023-07-13T02:52:36;85829.41;;;15.80;23.50
73974;BME280;62336;-26.094;27.994;2023-07-13T02:55:01;85830.44;;;15.92;23.33
73974;BME280;62336;-26.094;27.994;2023-07-13T02:57:27;85826.20;;;15.77;23.39
73974;BME280;62336;-26.094;27.994;2023-07-13T02:59:53;85824.58;;;16.08;23.47
73974;BME280;62336;-26.094;27.994;2023-07-13T03:02:18;85821.00;;;16.29;22.67
73974;BME280;62336;-26.094;27.994;2023-07-13T03:04:44;85820.20;;;16.18;22.23
73974;BME280;62336;-26.094;27.994;2023-07-13T03:07:09;85823.09;;;15.80;22.44
73974;BME280;62336;-26.094;27.994;2023-07-13T03:09:35;85823.34;;;16.05;22.18
73974;BME280;62336;-26.094;27.994;2023-07-13T03:12:00;85825.61;;;16.03;22.33
73974;BME280;62336;-26.094;27.994;2023-07-13T03:14:26;85825.04;;;15.67;22.19
73974;BME280;62336;-26.094;27.994;2023-07-13T03:16:51;85825.09;;;15.72;22.39
73974;BME280;62336;-26.094;27.994;2023-07-13T03:19:17;85823.26;;;15.68;22.47
73974;BME280;62336;-26.094;27.994;2023-07-13T03:21:43;85822.82;;;15.93;22.38
73974;BME280;62336;-26.094;27.994;2023-07-13T03:24:09;85825.75;;;15.47;22.52
73974;BME280;62336;-26.094;27.994;2023-07-13T03:26:34;85828.86;;;15.82;22.15
73974;BME280;62336;-26.094;27.994;2023-07-13T03:28:59;85831.57;;;16.06;22.45
73974;BME280;62336;-26.094;27.994;2023-07-13T03:31:27;85829.48;;;15.43;22.61
73974;BME280;62336;-26.094;27.994;2023-07-13T03:33:50;85832.16;;;15.70;22.47
73974;BME280;62336;-26.094;27.994;2023-07-13T03:36:20;85837.02;;;15.83;22.33
73974;BME280;62336;-26.094;27.994;2023-07-13T03:38:40;85840.08;;;15.63;22.57
73974;BME280;62336;-26.094;27.994;2023-07-13T03:41:06;85838.62;;;15.60;22.49
73974;BME280;62336;-26.094;27.994;2023-07-13T03:43:31;85843.37;;;15.79;22.54
73974;BME280;62336;-26.094;27.994;2023-07-13T03:45:57;85843.92;;;15.93;22.20
73974;BME280;62336;-26.094;27.994;2023-07-13T03:48:24;85844.20;;;15.84;22.20
73974;BME280;62336;-26.094;27.994;2023-07-13T03:50:49;85844.62;;;15.42;22.37
73974;BME280;62336;-26.094;27.994;2023-07-13T03:53:14;85844.35;;;15.47;22.49
73974;BME280;62336;-26.094;27.994;2023-07-13T03:55:39;85847.46;;;15.47;22.20
73974;BME280;62336;-26.094;27.994;2023-07-13T04:00:31;85849.62;;;15.58;22.78
73974;BME280;62336;-26.094;27.994;2023-07-13T04:02:56;85852.94;;;15.72;23.15
73974;BME280;62336;-26.094;27.994;2023-07-13T04:05:22;85853.60;;;15.88;22.38
73974;BME280;62336;-26.094;27.994;2023-07-13T04:07:47;85854.39;;;15.54;22.57
73974;BME280;62336;-26.094;27.994;2023-07-13T04:10:12;85854.25;;;15.38;22.91
73974;BME280;62336;-26.094;27.994;2023-07-13T04:12:38;85855.31;;;15.09;22.65
73974;BME280;62336;-26.094;27.994;2023-07-13T04:15:04;85856.04;;;15.30;22.69
73974;BME280;62336;-26.094;27.994;2023-07-13T04:17:29;85859.46;;;15.37;22.56
73974;BME280;62336;-26.094;27.994;2023-07-13T04:19:54;85856.06;;;15.38;22.81
73974;BME280;62336;-26.094;27.994;2023-07-13T04:22:19;85855.22;;;14.80;23.20
73974;BME280;62336;-26.094;27.994;2023-07-13T04:24:45;85854.30;;;14.84;22.99
73974;BME280;62336;-26.094;27.994;2023-07-13T04:27:10;85857.54;;;15.54;22.84
73974;BME280;62336;-26.094;27.994;2023-07-13T04:29:35;85855.07;;;15.22;22.87
73974;BME280;62336;-26.094;27.994;2023-07-13T04:32:01;85855.38;;;15.27;22.69
73974;BME280;62336;-26.094;27.994;2023-07-13T04:34:26;85858.16;;;15.41;22.45
73974;BME280;62336;-26.094;27.994;2023-07-13T04:36:52;85859.79;;;15.32;22.70
73974;BME280;62336;-26.094;27.994;2023-07-13T04:39:17;85859.21;;;15.50;22.76
73974;BME280;62336;-26.094;27.994;2023-07-13T04:41:42;85860.50;;;15.40;22.91
73974;BME280;62336;-26.094;27.994;2023-07-13T04:44:07;85859.20;;;15.68;22.14
73974;BME280;62336;-26.094;27.994;2023-07-13T04:46:32;85855.12;;;15.79;22.42
73974;BME280;62336;-26.094;27.994;2023-07-13T04:48:58;85852.43;;;15.65;22.51
73974;BME280;62336;-26.094;27.994;2023-07-13T04:51:24;85849.88;;;15.69;22.23
73974;BME280;62336;-26.094;27.994;2023-07-13T04:53:49;85850.98;;;16.07;22.75
73974;BME280;62336;-26.094;27.994;2023-07-13T04:56:15;85849.83;;;15.80;22.70
73974;BME280;62336;-26.094;27.994;2023-07-13T04:58:40;85850.23;;;15.67;22.21
73974;BME280;62336;-26.094;27.994;2023-07-13T05:01:06;85849.81;;;15.49;22.38
73974;BME280;62336;-26.094;27.994;2023-07-13T05:03:31;85850.39;;;15.42;22.63
73974;BME280;62336;-26.094;27.994;2023-07-13T05:05:58;85854.24;;;15.45;22.34
73974;BME280;62336;-26.094;27.994;2023-07-13T05:08:21;85858.41;;;15.91;22.18
73974;BME280;62336;-26.094;27.994;2023-07-13T05:10:47;85863.39;;;16.39;21.73
73974;BME280;62336;-26.094;27.994;2023-07-13T05:13:13;85868.88;;;15.78;22.23
73974;BME280;62336;-26.094;27.994;2023-07-13T05:15:38;85869.67;;;16.07;22.11
73974;BME280;62336;-26.094;27.994;2023-07-13T05:18:04;85865.54;;;15.47;22.38
73974;BME280;62336;-26.094;27.994;2023-07-13T05:20:30;85870.17;;;15.97;22.11
73974;BME280;62336;-26.094;27.994;2023-07-13T05:22:55;85874.34;;;16.23;22.30
73974;BME280;62336;-26.094;27.994;2023-07-13T05:25:21;85875.15;;;16.02;22.67
73974;BME280;62336;-26.094;27.994;2023-07-13T05:27:46;85874.20;;;15.58;23.28
73974;BME280;62336;-26.094;27.994;2023-07-13T05:30:11;85877.20;;;16.20;22.97
73974;BME280;62336;-26.094;27.994;2023-07-13T05:32:37;85878.80;;;15.89;22.97
73974;BME280;62336;-26.094;27.994;2023-07-13T05:35:02;85881.92;;;16.27;22.79
73974;BME280;62336;-26.094;27.994;2023-07-13T05:37:28;85882.11;;;16.04;22.88
73974;BME280;62336;-26.094;27.994;2023-07-13T05:39:53;85883.43;;;15.62;23.51
73974;BME280;62336;-26.094;27.994;2023-07-13T05:42:19;85882.70;;;15.84;23.78
73974;BME280;62336;-26.094;27.994;2023-07-13T05:44:44;85883.35;;;15.52;23.81
73974;BME280;62336;-26.094;27.994;2023-07-13T05:47:10;85884.48;;;15.88;24.23
73974;BME280;62336;-26.094;27.994;2023-07-13T05:49:36;85885.91;;;15.55;23.51
73974;BME280;62336;-26.094;27.994;2023-07-13T05:52:01;85887.93;;;15.56;23.32
73974;BME280;62336;-26.094;27.994;2023-07-13T05:54:27;85888.50;;;15.73;23.29
73974;BME280;62336;-26.094;27.994;2023-07-13T05:56:52;85891.71;;;15.97;23.22
73974;BME280;62336;-26.094;27.994;2023-07-13T05:59:18;85892.90;;;16.55;23.07
73974;BME280;62336;-26.094;27.994;2023-07-13T06:01:43;85892.61;;;16.48;22.81
73974;BME280;62336;-26.094;27.994;2023-07-13T06:04:09;85892.66;;;16.01;23.18
73974;BME280;62336;-26.094;27.994;2023-07-13T06:06:35;85894.31;;;15.78;23.54
73974;BME280;62336;-26.094;27.994;2023-07-13T06:09:00;85899.65;;;16.05;23.38
73974;BME280;62336;-26.094;27.994;2023-07-13T06:11:27;85900.91;;;16.81;22.92
73974;BME280;62336;-26.094;27.994;2023-07-13T06:13:51;85903.39;;;17.18;22.57
73974;BME280;62336;-26.094;27.994;2023-07-13T06:16:17;85908.53;;;17.02;22.78
73974;BME280;62336;-26.094;27.994;2023-07-13T06:18:42;85910.78;;;17.30;22.70
73974;BME280;62336;-26.094;27.994;2023-07-13T06:21:08;85912.96;;;18.01;23.20
73974;BME280;62336;-26.094;27.994;2023-07-13T06:23:32;85915.20;;;17.68;23.24
73974;BME280;62336;-26.094;27.994;2023-07-13T06:25:58;85912.28;;;18.25;23.38
73974;BME280;62336;-26.094;27.994;2023-07-13T06:28:24;85910.55;;;18.37;23.19
73974;BME280;62336;-26.094;27.994;2023-07-13T06:30:49;85914.92;;;17.84;23.38
73974;BME280;62336;-26.094;27.994;2023-07-13T06:33:15;85915.60;;;18.01;23.40
73974;BME280;62336;-26.094;27.994;2023-07-13T06:35:40;85917.45;;;18.58;23.20
73974;BME280;62336;-26.094;27.994;2023-07-13T06:38:06;85918.70;;;18.63;23.29
73974;BME280;62336;-26.094;27.994;2023-07-13T06:40:31;85917.97;;;19.24;22.55
73974;BME280;62336;-26.094;27.994;2023-07-13T06:42:56;85920.33;;;19.01;22.29
73974;BME280;62336;-26.094;27.994;2023-07-13T06:45:22;85922.65;;;19.64;22.17
73974;BME280;62336;-26.094;27.994;2023-07-13T06:47:46;85924.89;;;19.24;22.14
73974;BME280;62336;-26.094;27.994;2023-07-13T06:50:12;85925.07;;;19.45;22.26
73974;BME280;62336;-26.094;27.994;2023-07-13T06:52:38;85924.79;;;19.20;22.31
73974;BME280;62336;-26.094;27.994;2023-07-13T06:55:04;85926.41;;;19.10;22.54
73974;BME280;62336;-26.094;27.994;2023-07-13T06:57:28;85926.03;;;19.29;22.71
73974;BME280;62336;-26.094;27.994;2023-07-13T06:59:54;85926.82;;;19.67;22.40
73974;BME280;62336;-26.094;27.994;2023-07-13T07:02:19;85927.93;;;19.98;22.37
73974;BME280;62336;-26.094;27.994;2023-07-13T07:04:44;85928.45;;;20.05;22.14
73974;BME280;62336;-26.094;27.994;2023-07-13T07:07:09;85925.04;;;20.23;21.60
73974;BME280;62336;-26.094;27.994;2023-07-13T07:09:34;85927.28;;;20.43;21.78
73974;BME280;62336;-26.094;27.994;2023-07-13T07:11:59;85927.97;;;20.56;21.72
73974;BME280;62336;-26.094;27.994;2023-07-13T07:14:25;85927.87;;;20.70;22.25
73974;BME280;62336;-26.094;27.994;2023-07-13T07:16:50;85928.74;;;20.23;22.11
73974;BME280;62336;-26.094;27.994;2023-07-13T07:19:15;85925.47;;;20.90;21.40
73974;BME280;62336;-26.094;27.994;2023-07-13T07:21:41;85927.02;;;20.42;21.37
73974;BME280;62336;-26.094;27.994;2023-07-13T07:24:07;85927.20;;;20.84;21.06
73974;BME280;62336;-26.094;27.994;2023-07-13T07:26:32;85922.32;;;20.85;21.01
73974;BME280;62336;-26.094;27.994;2023-07-13T07:28:57;85921.67;;;21.65;20.39
73974;BME280;62336;-26.094;27.994;2023-07-13T07:31:24;85922.08;;;21.08;20.23
73974;BME280;62336;-26.094;27.994;2023-07-13T07:33:49;85924.18;;;21.16;20.57
73974;BME280;62336;-26.094;27.994;2023-07-13T07:36:14;85925.15;;;21.44;20.49
73974;BME280;62336;-26.094;27.994;2023-07-13T07:38:40;85922.90;;;21.47;20.97
73974;BME280;62336;-26.094;27.994;2023-07-13T07:41:06;85921.70;;;21.79;20.59
73974;BME280;62336;-26.094;27.994;2023-07-13T07:43:31;85921.03;;;21.60;20.25
73974;BME280;62336;-26.094;27.994;2023-07-13T07:45:56;85921.34;;;21.42;20.56
73974;BME280;62336;-26.094;27.994;2023-07-13T07:48:22;85925.99;;;22.60;19.60
73974;BME280;62336;-26.094;27.994;2023-07-13T07:50:47;85926.77;;;21.97;19.95
73974;BME280;62336;-26.094;27.994;2023-07-13T07:53:12;85931.06;;;22.24;19.90
73974;BME280;62336;-26.094;27.994;2023-07-13T07:55:37;85927.83;;;21.20;20.53
73974;BME280;62336;-26.094;27.994;2023-07-13T07:58:02;85926.21;;;21.72;20.17
73974;BME280;62336;-26.094;27.994;2023-07-13T08:00:28;85925.34;;;21.91;20.18
73974;BME280;62336;-26.094;27.994;2023-07-13T08:02:54;85921.28;;;22.82;19.03
73974;BME280;62336;-26.094;27.994;2023-07-13T08:05:19;85920.99;;;22.53;19.37
73974;BME280;62336;-26.094;27.994;2023-07-13T08:07:45;85921.31;;;22.59;19.22
73974;BME280;62336;-26.094;27.994;2023-07-13T08:10:10;85919.65;;;22.76;19.11
73974;BME280;62336;-26.094;27.994;2023-07-13T08:12:37;85916.89;;;22.86;19.02
73974;BME280;62336;-26.094;27.994;2023-07-13T08:15:01;85916.94;;;22.87;18.89
73974;BME280;62336;-26.094;27.994;2023-07-13T08:17:27;85913.44;;;22.80;18.67
73974;BME280;62336;-26.094;27.994;2023-07-13T08:19:53;85910.41;;;22.89;18.78
73974;BME280;62336;-26.094;27.994;2023-07-13T08:22:18;85909.77;;;22.58;18.85
73974;BME280;62336;-26.094;27.994;2023-07-13T08:24:43;85905.70;;;22.51;18.90
73974;BME280;62336;-26.094;27.994;2023-07-13T08:27:09;85906.26;;;22.75;18.53
73974;BME280;62336;-26.094;27.994;2023-07-13T08:29:34;85900.78;;;22.38;19.06
73974;BME280;62336;-26.094;27.994;2023-07-13T08:32:00;85901.34;;;22.91;18.27
73974;BME280;62336;-26.094;27.994;2023-07-13T08:34:25;85895.56;;;23.50;18.01
73974;BME280;62336;-26.094;27.994;2023-07-13T08:36:50;85892.23;;;23.42;18.59
73974;BME280;62336;-26.094;27.994;2023-07-13T08:39:16;85888.21;;;23.49;18.47
73974;BME280;62336;-26.094;27.994;2023-07-13T08:41:42;85889.00;;;23.65;18.21
73974;BME280;62336;-26.094;27.994;2023-07-13T08:44:15;85888.36;;;23.57;18.91
73974;BME280;62336;-26.094;27.994;2023-07-13T08:46:36;85886.36;;;23.87;18.37
73974;BME280;62336;-26.094;27.994;2023-07-13T08:48:59;85881.54;;;24.15;17.31
73974;BME280;62336;-26.094;27.994;2023-07-13T08:51:33;85878.30;;;24.17;18.25
73974;BME280;62336;-26.094;27.994;2023-07-13T08:53:52;85874.11;;;24.10;17.10
73974;BME280;62336;-26.094;27.994;2023-07-13T08:56:18;85868.93;;;24.08;16.92
73974;BME280;62336;-26.094;27.994;2023-07-13T08:58:40;85865.85;;;24.10;17.82
73974;BME280;62336;-26.094;27.994;2023-07-13T09:01:11;85861.50;;;24.16;17.14
73974;BME280;62336;-26.094;27.994;2023-07-13T09:03:37;85859.70;;;24.38;17.10
73974;BME280;62336;-26.094;27.994;2023-07-13T09:05:59;85855.89;;;25.07;16.08
73974;BME280;62336;-26.094;27.994;2023-07-13T09:10:52;85852.10;;;24.99;15.96
73974;BME280;62336;-26.094;27.994;2023-07-13T09:13:22;85851.52;;;24.80;16.12
73974;BME280;62336;-26.094;27.994;2023-07-13T09:15:40;85846.35;;;25.13;15.77
73974;BME280;62336;-26.094;27.994;2023-07-13T09:18:09;85836.44;;;24.75;15.76
73974;BME280;62336;-26.094;27.994;2023-07-13T09:20:33;85837.09;;;25.60;15.29
73974;BME280;62336;-26.094;27.994;2023-07-13T09:22:54;85834.39;;;25.27;15.40
73974;BME280;62336;-26.094;27.994;2023-07-13T09:25:27;85829.98;;;25.36;15.81
73974;BME280;62336;-26.094;27.994;2023-07-13T09:27:46;85827.60;;;25.59;15.64
73974;BME280;62336;-26.094;27.994;2023-07-13T09:30:33;85819.49;;;25.95;15.52
73974;BME280;62336;-26.094;27.994;2023-07-13T09:32:38;85819.76;;;25.72;15.24
73974;BME280;62336;-26.094;27.994;2023-07-13T09:35:01;85811.97;;;25.42;15.54
73974;BME280;62336;-26.094;27.994;2023-07-13T09:37:31;85811.25;;;25.59;15.62
73974;BME280;62336;-26.094;27.994;2023-07-13T09:39:53;85806.56;;;25.54;14.86
73974;BME280;62336;-26.094;27.994;2023-07-13T09:42:20;85800.33;;;26.14;14.79
73974;BME280;62336;-26.094;27.994;2023-07-13T09:44:53;85793.07;;;25.79;13.75
73974;BME280;62336;-26.094;27.994;2023-07-13T09:47:15;85791.02;;;26.56;13.11
73974;BME280;62336;-26.094;27.994;2023-07-13T09:49:36;85786.23;;;27.13;13.42
73974;BME280;62336;-26.094;27.994;2023-07-13T09:52:03;85781.07;;;26.28;13.26
73974;BME280;62336;-26.094;27.994;2023-07-13T09:54:26;85774.75;;;26.56;12.81
73974;BME280;62336;-26.094;27.994;2023-07-13T09:56:55;85772.36;;;26.82;12.58
73974;BME280;62336;-26.094;27.994;2023-07-13T09:59:22;85772.64;;;26.41;13.05
73974;BME280;62336;-26.094;27.994;2023-07-13T10:01:42;85768.34;;;26.70;13.15
73974;BME280;62336;-26.094;27.994;2023-07-13T10:04:12;85765.17;;;26.41;13.10
73974;BME280;62336;-26.094;27.994;2023-07-13T10:06:34;85761.61;;;26.21;12.06
73974;BME280;62336;-26.094;27.994;2023-07-13T10:08:59;85754.96;;;26.39;12.07
73974;BME280;62336;-26.094;27.994;2023-07-13T10:11:28;85753.28;;;26.83;12.29
73974;BME280;62336;-26.094;27.994;2023-07-13T10:13:52;85752.15;;;26.69;12.74
73974;BME280;62336;-26.094;27.994;2023-07-13T10:16:16;85742.28;;;27.25;11.47
73974;BME280;62336;-26.094;27.994;2023-07-13T10:18:46;85738.31;;;26.89;11.28
73974;BME280;62336;-26.094;27.994;2023-07-13T10:21:15;85734.64;;;26.77;11.47
73974;BME280;62336;-26.094;27.994;2023-07-13T10:23:32;85732.24;;;27.11;11.35
73974;BME280;62336;-26.094;27.994;2023-07-13T10:25:58;85723.78;;;27.50;11.01
73974;BME280;62336;-26.094;27.994;2023-07-13T10:28:29;85719.76;;;27.78;11.35
73974;BME280;62336;-26.094;27.994;2023-07-13T10:30:49;85718.41;;;27.52;11.57
73974;BME280;62336;-26.094;27.994;2023-07-13T10:33:14;85715.00;;;27.53;11.07
73974;BME280;62336;-26.094;27.994;2023-07-13T10:35:41;85711.19;;;27.82;11.53
73974;BME280;62336;-26.094;27.994;2023-07-13T10:38:07;85712.69;;;27.47;11.37
73974;BME280;62336;-26.094;27.994;2023-07-13T10:40:34;85705.29;;;26.90;11.75
73974;BME280;62336;-26.094;27.994;2023-07-13T10:42:57;85696.08;;;26.88;12.09
73974;BME280;62336;-26.094;27.994;2023-07-13T10:45:23;85689.03;;;27.08;12.05
73974;BME280;62336;-26.094;27.994;2023-07-13T10:47:47;85683.06;;;27.27;11.72
73974;BME280;62336;-26.094;27.994;2023-07-13T10:50:18;85677.12;;;27.69;11.52
73974;BME280;62336;-26.094;27.994;2023-07-13T10:52:44;85672.66;;;28.10;10.80
73974;BME280;62336;-26.094;27.994;2023-07-13T10:55:03;85670.41;;;27.76;10.84
73974;BME280;62336;-26.094;27.994;2023-07-13T10:57:28;85662.32;;;28.20;10.49
73974;BME280;62336;-26.094;27.994;2023-07-13T11:02:25;85653.43;;;27.77;10.51
73974;BME280;62336;-26.094;27.994;2023-07-13T11:04:46;85640.23;;;27.99;10.26
73974;BME280;62336;-26.094;27.994;2023-07-13T11:09:38;85648.98;;;27.47;10.31
73974;BME280;62336;-26.094;27.994;2023-07-13T11:12:02;85643.03;;;27.82;10.44
73974;BME280;62336;-26.094;27.994;2023-07-13T11:14:32;85640.31;;;27.87;10.33
73974;BME280;62336;-26.094;27.994;2023-07-13T11:16:51;85640.96;;;27.60;10.39
73974;BME280;62336;-26.094;27.994;2023-07-13T11:24:14;85631.50;;;27.43;10.76
73974;BME280;62336;-26.094;27.994;2023-07-13T11:26:41;85620.91;;;28.08;10.30
73974;BME280;62336;-26.094;27.994;2023-07-13T11:28:59;85615.21;;;27.78;10.65
73974;BME280;62336;-26.094;27.994;2023-07-13T11:31:25;85615.42;;;27.68;10.62
73974;BME280;62336;-26.094;27.994;2023-07-13T11:33:55;85610.77;;;27.84;10.49
73974;BME280;62336;-26.094;27.994;2023-07-13T11:36:17;85615.12;;;27.98;10.49
73974;BME280;62336;-26.094;27.994;2023-07-13T11:38:42;85613.56;;;27.86;10.21
73974;BME280;62336;-26.094;27.994;2023-07-13T11:41:13;85615.08;;;28.32;9.45
73974;BME280;62336;-26.094;27.994;2023-07-13T11:43:31;85615.01;;;28.46;10.14
73974;BME280;62336;-26.094;27.994;2023-07-13T11:45:56;85609.04;;;28.23;10.14
73974;BME280;62336;-26.094;27.994;2023-07-13T11:48:25;85604.04;;;28.44;10.22
73974;BME280;62336;-26.094;27.994;2023-07-13T11:50:53;85602.45;;;28.11;10.55
73974;BME280;62336;-26.094;27.994;2023-07-13T11:53:14;85596.73;;;27.85;10.57
73974;BME280;62336;-26.094;27.994;2023-07-13T11:55:39;85603.11;;;28.08;10.64
73974;BME280;62336;-26.094;27.994;2023-07-13T11:58:07;85598.98;;;28.30;10.12
73974;BME280;62336;-26.094;27.994;2023-07-13T12:00:32;85597.94;;;28.56;10.33
73974;BME280;62336;-26.094;27.994;2023-07-13T12:02:59;85599.67;;;28.43;10.64
73974;BME280;62336;-26.094;27.994;2023-07-13T12:05:22;85600.55;;;28.03;10.85
73974;BME280;62336;-26.094;27.994;2023-07-13T12:07:47;85597.12;;;28.70;10.56
73974;BME280;62336;-26.094;27.994;2023-07-13T12:10:19;85597.17;;;28.16;10.47
73974;BME280;62336;-26.094;27.994;2023-07-13T12:12:48;85592.91;;;28.15;10.38
73974;BME280;62336;-26.094;27.994;2023-07-13T12:15:06;85586.83;;;28.75;10.00
73974;BME280;62336;-26.094;27.994;2023-07-13T12:17:28;85582.96;;;28.75;9.87
73974;BME280;62336;-26.094;27.994;2023-07-13T12:19:54;85582.67;;;28.87;10.16
73974;BME280;62336;-26.094;27.994;2023-07-13T12:22:20;85576.56;;;29.27;10.07
73974;BME280;62336;-26.094;27.994;2023-07-13T12:24:44;85576.10;;;28.47;10.15
73974;BME280;62336;-26.094;27.994;2023-07-13T12:27:18;85576.90;;;29.07;10.24
73974;BME280;62336;-26.094;27.994;2023-07-13T12:29:36;85573.59;;;28.90;10.61
73974;BME280;62336;-26.094;27.994;2023-07-13T12:32:01;85572.63;;;28.59;10.47
73974;BME280;62336;-26.094;27.994;2023-07-13T12:34:27;85575.23;;;28.53;10.30
73974;BME280;62336;-26.094;27.994;2023-07-13T12:36:56;85572.92;;;28.31;10.55
73974;BME280;62336;-26.094;27.994;2023-07-13T12:39:20;85567.22;;;28.23;10.96
73974;BME280;62336;-26.094;27.994;2023-07-13T12:41:42;85567.34;;;29.12;10.37
73974;BME280;62336;-26.094;27.994;2023-07-13T12:44:12;85564.35;;;28.35;10.75